Time;durP1;ratioP1;P1;durP2;ratioP2;P2;SDS_P1;SDS_P2;PMS_P1;PMS_P2;Temp;Humidity;BMP_temperature;BMP_pressure;BME280_temperature;BME280_humidity;BME280_pressure;Samples;Min_cycle;Max_cycle;Signal;HPM_P1;HPM_P2
2021/08/28 00:00:51;;;;;;;;;;;;;;;25.96;63.28;100663.88;5048149;28;1276;-65
2021/08/28 00:03:19;;;;;;;;;;;;;;;25.90;63.61;100659.06;5044962;28;1245;-65
2021/08/28 00:05:46;;;;;;;;;;;;;;;25.90;63.18;100664.41;5049530;28;1906;-66
2021/08/28 00:08:13;;;;;;;;;;;;;;;25.93;63.57;100666.81;5050447;28;1116;-65
2021/08/28 00:10:40;;;;;;;;;;;;;;;25.94;63.30;100657.78;5033384;28;1330;-65
2021/08/28 00:13:07;;;;;;;;;;;;;;;25.93;63.72;100658.81;5051074;28;988;-65
2021/08/28 00:15:34;;;;;;;;;;;;;;;25.91;63.59;100647.41;5049730;28;1272;-65
2021/08/28 00:18:01;;;;;;;;;;;;;;;25.91;63.43;100650.06;5049588;28;1044;-66
2021/08/28 00:20:30;;;;;;;;;;;;;;;25.92;63.52;100649.09;5049939;28;1339;-65
2021/08/28 00:22:57;;;;;;;;;;;;;;;25.90;63.50;100643.06;5050784;28;810;-65
2021/08/28 00:25:24;;;;;;;;;;;;;;;25.93;63.19;100642.78;5050453;28;1353;-64
2021/08/28 00:27:50;;;;;;;;;;;;;;;25.93;63.37;100634.78;5049083;28;1906;-65
2021/08/28 00:30:18;;;;;;;;;;;;;;;25.92;63.07;100643.75;5051245;28;1047;-65
2021/08/28 00:32:44;;;;;;;;;;;;;;;25.90;63.47;100637.72;5049032;28;1302;-66
2021/08/28 00:35:11;;;;;;;;;;;;;;;25.90;63.22;100632.38;5050950;28;1216;-65
2021/08/28 00:37:38;;;;;;;;;;;;;;;25.90;63.10;100629.72;5050422;28;1328;-65
2021/08/28 00:40:05;;;;;;;;;;;;;;;25.85;63.32;100630.09;5050877;28;1017;-66
2021/08/28 00:42:32;;;;;;;;;;;;;;;25.90;63.13;100630.53;5049060;28;1189;-66
2021/08/28 00:44:59;;;;;;;;;;;;;;;25.88;63.55;100634.31;5050419;28;988;-66
2021/08/28 00:47:26;;;;;;;;;;;;;;;25.88;62.85;100634.31;5050589;28;1910;-65
2021/08/28 00:49:53;;;;;;;;;;;;;;;25.89;63.58;100634.22;5050620;28;1135;-66
2021/08/28 00:52:20;;;;;;;;;;;;;;;25.91;63.07;100631.38;5050514;28;1220;-66
2021/08/28 00:54:47;;;;;;;;;;;;;;;25.91;63.66;100634.06;5050561;28;945;-66
2021/08/28 00:57:14;;;;;;;;;;;;;;;25.87;63.88;100630.81;5048273;28;1343;-66
2021/08/28 00:59:41;;;;;;;;;;;;;;;25.87;62.71;100625.47;5050540;28;1045;-65
2021/08/28 01:02:08;;;;;;;;;;;;;;;25.87;63.50;100627.31;5048545;28;1264;-67
2021/08/28 01:04:40;;;;;;;;;;;;;;;25.86;63.81;100623.81;5050492;28;1123;-64
2021/08/28 01:07:28;;;;;;;;;;;;;;;25.92;62.93;100617.06;5049429;28;1984;-67
2021/08/28 01:09:59;;;;;;;;;;;;;;;25.92;63.40;100623.25;5050409;28;1049;-65
2021/08/28 01:12:27;;;;;;;;;;;;;;;25.91;63.55;100626.91;5050003;28;1311;-65
2021/08/28 01:15:02;;;;;;;;;;;;;;;25.90;63.08;100624.38;5050239;28;1066;-65
2021/08/28 01:17:30;;;;;;;;;;;;;;;25.88;63.87;100629.00;5049865;28;1193;-66
2021/08/28 01:20:03;;;;;;;;;;;;;;;25.90;63.81;100621.72;5050182;28;1520;-66
2021/08/28 01:22:30;;;;;;;;;;;;;;;25.89;63.59;100615.53;5049768;28;1278;-66
2021/08/28 01:24:58;;;;;;;;;;;;;;;25.91;63.91;100615.38;5049664;28;1196;-66
2021/08/28 01:27:46;;;;;;;;;;;;;;;25.79;63.60;100595.97;5049997;28;1910;-66
2021/08/28 01:30:13;;;;;;;;;;;;;;;25.86;63.16;100610.47;5049881;28;1138;-66
2021/08/28 01:32:42;;;;;;;;;;;;;;;25.86;63.73;100618.47;5049589;28;1336;-66
2021/08/28 01:35:09;;;;;;;;;;;;;;;25.86;63.41;100623.81;5048388;28;1049;-66
2021/08/28 01:37:39;;;;;;;;;;;;;;;25.83;63.69;100618.75;5047940;28;1288;-66
2021/08/28 01:40:07;;;;;;;;;;;;;;;25.82;63.51;100625.03;5048046;28;1650;-66
2021/08/28 01:42:34;;;;;;;;;;;;;;;25.81;63.12;100612.66;5048009;28;1269;-66
2021/08/28 01:45:01;;;;;;;;;;;;;;;25.78;63.56;100617.44;5048314;28;1046;-66
2021/08/28 01:47:29;;;;;;;;;;;;;;;25.81;62.96;100615.34;5049045;28;1983;-66
2021/08/28 01:49:57;;;;;;;;;;;;;;;25.83;63.05;100616.06;5048137;28;1086;-66
2021/08/28 01:52:23;;;;;;;;;;;;;;;25.83;62.93;100613.41;5049411;28;1137;-66
2021/08/28 01:54:52;;;;;;;;;;;;;;;25.83;62.89;100617.88;5049396;28;1024;-66
2021/08/28 01:57:19;;;;;;;;;;;;;;;25.81;63.34;100619.81;5049361;28;1332;-66
2021/08/28 01:59:46;;;;;;;;;;;;;;;25.84;63.10;100614.25;5049064;28;902;-66
2021/08/28 02:02:13;;;;;;;;;;;;;;;25.84;63.13;100619.59;5049118;28;1295;-66
2021/08/28 02:04:49;;;;;;;;;;;;;;;25.84;63.12;100624.94;5048046;28;1541;-66
2021/08/28 02:07:39;;;;;;;;;;;;;;;25.82;63.10;100622.38;5048921;28;1983;-66
2021/08/28 02:10:05;;;;;;;;;;;;;;;25.82;63.33;100618.84;5048879;28;1045;-66
2021/08/28 02:12:35;;;;;;;;;;;;;;;25.84;62.57;100622.25;5047415;28;1242;-64
2021/08/28 02:15:06;;;;;;;;;;;;;;;25.81;62.91;100620.69;5047566;28;1027;-65
2021/08/28 02:17:35;;;;;;;;;;;;;;;25.82;62.82;100622.38;5048905;28;1291;-65
2021/08/28 02:20:04;;;;;;;;;;;;;;;25.81;62.83;100617.16;5049219;28;1043;-65
2021/08/28 02:22:33;;;;;;;;;;;;;;;25.83;63.11;100623.22;5048667;28;1205;-65
2021/08/28 02:25:05;;;;;;;;;;;;;;;25.78;63.03;100622.78;5048490;28;1440;-65
2021/08/28 02:27:38;;;;;;;;;;;;;;;25.80;63.24;100623.50;5048296;28;1918;-65
2021/08/28 02:30:08;;;;;;;;;;;;;;;25.81;63.10;100619.81;5048742;28;1049;-65
2021/08/28 02:32:35;;;;;;;;;;;;;;;25.81;63.18;100617.16;5046852;28;1351;-65
2021/08/28 02:35:03;;;;;;;;;;;;;;;25.77;63.07;100616.63;5048743;28;1101;-65
2021/08/28 02:37:33;;;;;;;;;;;;;;;25.75;63.10;100621.22;5048341;28;1228;-65
2021/08/28 02:40:01;;;;;;;;;;;;;;;25.73;62.88;100623.19;5048837;28;1163;-65
2021/08/28 02:42:28;;;;;;;;;;;;;;;25.75;63.17;100625.72;5046752;28;1224;-65
2021/08/28 02:44:55;;;;;;;;;;;;;;;25.76;63.17;100612.25;5048545;28;1059;-65
2021/08/28 02:47:22;;;;;;;;;;;;;;;25.78;62.13;100620.94;5047935;28;1926;-65
2021/08/28 02:49:50;;;;;;;;;;;;;;;25.76;62.79;100611.41;5048456;28;1055;-66
2021/08/28 02:52:19;;;;;;;;;;;;;;;25.77;62.97;100605.09;5047205;28;1233;-66
2021/08/28 02:54:47;;;;;;;;;;;;;;;25.79;62.81;100608.47;5048467;28;900;-65
2021/08/28 02:57:14;;;;;;;;;;;;;;;25.73;62.81;100606.34;5046734;28;1361;-65
2021/08/28 02:59:41;;;;;;;;;;;;;;;25.73;62.41;100603.66;5046792;28;1707;-65
2021/08/28 03:02:08;;;;;;;;;;;;;;;25.71;62.43;100610.97;5046459;28;1811;-66
2021/08/28 03:04:36;;;;;;;;;;;;;;;25.72;62.53;100615.31;5046705;28;1076;-66
2021/08/28 03:07:05;;;;;;;;;;;;;;;25.71;62.39;100608.31;5029937;28;1906;-66
2021/08/28 03:09:32;;;;;;;;;;;;;;;25.72;62.72;100601.97;5048018;28;1432;-66
2021/08/28 03:12:00;;;;;;;;;;;;;;;25.71;62.37;100605.63;5047719;28;1225;-66
2021/08/28 03:14:27;;;;;;;;;;;;;;;25.72;62.19;100599.31;5046600;28;1195;-66
2021/08/28 03:16:56;;;;;;;;;;;;;;;25.73;62.57;100599.19;5046347;28;1209;-66
2021/08/28 03:19:24;;;;;;;;;;;;;;;25.71;62.10;100602.97;5047628;28;1126;-66
2021/08/28 03:21:55;;;;;;;;;;;;;;;25.69;62.51;100596.91;5047772;28;1299;-65
2021/08/28 03:24:25;;;;;;;;;;;;;;;25.64;62.81;100591.13;5047707;28;1319;-65
2021/08/28 03:26:53;;;;;;;;;;;;;;;25.66;62.18;100597.19;5047627;28;1931;-66
2021/08/28 03:29:21;;;;;;;;;;;;;;;25.65;62.23;100598.19;5029929;28;1363;-66
2021/08/28 03:31:50;;;;;;;;;;;;;;;25.64;61.58;100604.47;5047480;28;1183;-66
2021/08/28 03:34:18;;;;;;;;;;;;;;;25.61;61.69;100597.59;5047732;28;1144;-65
2021/08/28 03:36:45;;;;;;;;;;;;;;;25.61;61.16;100596.75;5047273;28;1177;-66
2021/08/28 03:39:12;;;;;;;;;;;;;;;25.62;60.86;100598.44;5046338;28;1101;-65
2021/08/28 03:41:39;;;;;;;;;;;;;;;25.64;60.47;100594.66;5047362;28;1275;-66
2021/08/28 03:44:12;;;;;;;;;;;;;;;25.63;60.45;100594.78;5047747;28;946;-66
2021/08/28 03:46:38;;;;;;;;;;;;;;;25.63;60.21;100592.09;5047575;28;1910;-66
2021/08/28 03:49:05;;;;;;;;;;;;;;;25.60;59.92;100592.38;5046625;28;1131;-66
2021/08/28 03:51:33;;;;;;;;;;;;;;;25.61;59.90;100586.06;5047960;28;1331;-66
2021/08/28 03:54:01;;;;;;;;;;;;;;;25.56;60.35;100588.31;5046162;28;1654;-66
2021/08/28 03:56:28;;;;;;;;;;;;;;;25.54;60.59;100586.63;5047540;28;1287;-67
2021/08/28 03:58:55;;;;;;;;;;;;;;;25.53;61.05;100590.25;5045951;28;1268;-66
2021/08/28 04:01:22;;;;;;;;;;;;;;;25.54;61.09;100591.09;5045656;28;1203;-66
2021/08/28 04:03:49;;;;;;;;;;;;;;;25.46;61.10;100586.44;5046010;28;956;-66
2021/08/28 04:06:36;;;;;;;;;;;;;;;25.44;61.40;100582.22;5047051;28;1902;-66
2021/08/28 04:09:03;;;;;;;;;;;;;;;25.43;61.27;100583.19;5047155;28;1082;-66
2021/08/28 04:11:29;;;;;;;;;;;;;;;25.45;60.99;100589.22;5047551;28;1246;-65
2021/08/28 04:13:56;;;;;;;;;;;;;;;25.44;61.00;100587.53;5047337;28;1217;-64
2021/08/28 04:16:23;;;;;;;;;;;;;;;25.43;60.64;100584.03;5047417;28;1217;-65
2021/08/28 04:18:49;;;;;;;;;;;;;;;25.44;60.15;100582.22;5046918;28;1037;-65
2021/08/28 04:21:16;;;;;;;;;;;;;;;25.39;60.45;100582.59;5047125;28;1253;-65
2021/08/28 04:23:43;;;;;;;;;;;;;;;25.37;60.17;100589.91;5046902;28;1274;-65
2021/08/28 04:26:10;;;;;;;;;;;;;;;25.35;60.71;100585.69;5047370;28;1232;-65
2021/08/28 04:28:36;;;;;;;;;;;;;;;25.32;60.46;100599.28;5047031;28;1968;-65
2021/08/28 04:31:04;;;;;;;;;;;;;;;25.31;60.14;100589.59;5045466;28;1405;-64
2021/08/28 04:33:31;;;;;;;;;;;;;;;25.28;59.90;100595.19;5050774;28;1126;-65
2021/08/28 04:35:57;;;;;;;;;;;;;;;25.21;59.45;100597.53;5051073;28;1229;-65
2021/08/28 04:38:24;;;;;;;;;;;;;;;25.19;59.08;100593.31;5050739;28;1278;-66
2021/08/28 04:40:53;;;;;;;;;;;;;;;25.15;58.51;100589.22;5049651;28;1244;-65
2021/08/28 04:43:20;;;;;;;;;;;;;;;25.15;58.28;100591.88;5049186;28;1317;-66
2021/08/28 04:45:47;;;;;;;;;;;;;;;25.18;58.01;100594.28;5050386;28;1185;-66
2021/08/28 04:48:16;;;;;;;;;;;;;;;25.19;57.96;100587.97;5050541;28;1902;-66
2021/08/28 04:50:46;;;;;;;;;;;;;;;25.14;58.06;100591.03;5050513;28;1410;-67
2021/08/28 04:53:14;;;;;;;;;;;;;;;25.17;58.02;100593.41;5050994;28;1217;-66
2021/08/28 04:55:40;;;;;;;;;;;;;;;25.22;57.99;100601.88;5050673;28;1302;-66
2021/08/28 04:58:07;;;;;;;;;;;;;;;25.16;58.11;100602.41;5048943;28;1280;-67
2021/08/28 05:00:34;;;;;;;;;;;;;;;25.19;58.11;100601.31;5050305;28;1233;-66
2021/08/28 05:03:01;;;;;;;;;;;;;;;25.20;58.15;100608.34;5048859;28;909;-67
2021/08/28 05:05:28;;;;;;;;;;;;;;;25.24;58.06;100604.41;5050017;28;1510;-66
2021/08/28 05:07:55;;;;;;;;;;;;;;;25.28;58.09;100601.34;5048622;28;1926;-66
2021/08/28 05:10:23;;;;;;;;;;;;;;;25.28;58.12;100608.50;5048782;28;1228;-66
2021/08/28 05:12:49;;;;;;;;;;;;;;;25.30;58.03;100614.53;5049832;28;1260;-65
2021/08/28 05:15:17;;;;;;;;;;;;;;;25.30;58.24;100615.38;5050294;28;1077;-66
2021/08/28 05:17:44;;;;;;;;;;;;;;;25.33;58.23;100614.28;5049482;28;1292;-66
2021/08/28 05:20:11;;;;;;;;;;;;;;;25.29;58.32;100619.03;5050170;28;1271;-66
2021/08/28 05:22:37;;;;;;;;;;;;;;;25.23;58.08;100608.88;5051303;28;1607;-65
2021/08/28 05:25:04;;;;;;;;;;;;;;;25.24;57.56;100621.25;5056383;28;1366;-66
2021/08/28 05:27:32;;;;;;;;;;;;;;;25.24;57.52;100615.06;5068291;28;1981;-66
2021/08/28 05:29:59;;;;;;;;;;;;;;;25.27;57.53;100618.31;5070066;28;1140;-66
2021/08/28 05:32:26;;;;;;;;;;;;;;;25.29;57.18;100620.88;5069808;28;1220;-67
2021/08/28 05:34:54;;;;;;;;;;;;;;;25.21;57.04;100620.66;5068295;28;1085;-66
2021/08/28 05:37:21;;;;;;;;;;;;;;;25.25;56.68;100627.44;5069483;28;1327;-66
2021/08/28 05:39:49;;;;;;;;;;;;;;;25.26;56.73;100629.94;5069842;28;931;-66
2021/08/28 05:42:16;;;;;;;;;;;;;;;25.25;56.94;100624.78;5069404;28;1240;-66
2021/08/28 05:44:43;;;;;;;;;;;;;;;25.27;56.63;100628.13;5069696;28;1141;-64
2021/08/28 05:47:10;;;;;;;;;;;;;;;25.25;56.84;100632.75;5067657;28;1906;-65
2021/08/28 05:49:37;;;;;;;;;;;;;;;25.30;56.22;100633.19;5066948;28;2063;-66
2021/08/28 05:52:04;;;;;;;;;;;;;;;25.33;56.15;100631.13;5069060;28;1209;-66
2021/08/28 05:54:30;;;;;;;;;;;;;;;25.33;55.91;100635.59;5069158;28;1040;-65
2021/08/28 05:56:57;;;;;;;;;;;;;;;25.26;55.94;100640.63;5069288;28;1157;-66
2021/08/28 05:59:24;;;;;;;;;;;;;;;25.27;55.50;100641.47;5069203;28;902;-66
2021/08/28 06:01:52;;;;;;;;;;;;;;;25.24;54.98;100650.56;5068986;28;1322;-66
2021/08/28 06:04:20;;;;;;;;;;;;;;;25.29;55.03;100650.19;5069096;28;1122;-65
2021/08/28 06:06:47;;;;;;;;;;;;;;;25.27;55.53;100649.47;5064949;28;1447;-71
2021/08/28 06:09:14;;;;;;;;;;;;;;;25.26;55.34;100653.94;5055316;28;1983;-72
2021/08/28 06:11:41;;;;;;;;;;;;;;;25.26;55.44;100656.59;5046830;28;1261;-71
2021/08/28 06:14:08;;;;;;;;;;;;;;;25.32;55.06;100660.59;5048260;28;895;-76
2021/08/28 06:16:34;;;;;;;;;;;;;;;25.37;55.49;100659.22;5047266;28;1307;-76
2021/08/28 06:19:02;;;;;;;;;;;;;;;25.35;55.54;100660.34;5047972;28;1592;-73
2021/08/28 06:21:29;;;;;;;;;;;;;;;25.37;55.41;100651.22;5047238;28;1225;-76
2021/08/28 06:23:56;;;;;;;;;;;;;;;25.41;55.59;100654.47;5048473;28;1347;-75
2021/08/28 06:26:22;;;;;;;;;;;;;;;25.40;56.06;100669.63;5052512;28;1421;-77
2021/08/28 06:28:49;;;;;;;;;;;;;;;25.42;56.28;100666.81;5056936;28;1964;-75
2021/08/28 06:31:16;;;;;;;;;;;;;;;25.38;56.04;100673.41;5065810;28;1216;-75
2021/08/28 06:33:43;;;;;;;;;;;;;;;25.36;56.13;100673.50;5067227;28;1004;-74
2021/08/28 06:36:10;;;;;;;;;;;;;;;25.35;56.24;100671.81;5066117;28;1244;-74
2021/08/28 06:38:37;;;;;;;;;;;;;;;25.38;56.19;100668.88;5067708;28;1028;-75
2021/08/28 06:41:04;;;;;;;;;;;;;;;25.38;55.84;100674.22;5062149;28;1566;-75
2021/08/28 06:43:31;;;;;;;;;;;;;;;25.38;56.06;100676.88;5058334;28;1035;-74
2021/08/28 06:45:58;;;;;;;;;;;;;;;25.37;56.15;100674.38;5065503;28;1255;-74
2021/08/28 06:48:24;;;;;;;;;;;;;;;25.35;55.83;100676.34;5067628;28;1905;-77
2021/08/28 06:50:51;;;;;;;;;;;;;;;25.37;55.84;100679.69;5065998;28;1371;-74
2021/08/28 06:53:18;;;;;;;;;;;;;;;25.35;56.09;100665.66;5067602;28;1021;-74
2021/08/28 06:55:45;;;;;;;;;;;;;;;25.34;55.83;100674.63;5065435;28;1331;-74
2021/08/28 06:58:12;;;;;;;;;;;;;;;25.32;55.62;100673.94;5068134;28;727;-74
2021/08/28 07:00:39;;;;;;;;;;;;;;;25.34;55.67;100670.16;5067505;28;1228;-73
2021/08/28 07:03:06;;;;;;;;;;;;;;;25.36;56.05;100683.34;5066307;28;1368;-78
2021/08/28 07:05:33;;;;;;;;;;;;;;;25.37;55.65;100669.03;5064540;28;1578;-73
2021/08/28 07:08:02;;;;;;;;;;;;;;;25.39;55.75;100669.72;5055935;28;1979;-72
2021/08/28 07:10:28;;;;;;;;;;;;;;;25.37;55.71;100674.38;5067052;28;1366;-74
2021/08/28 07:12:55;;;;;;;;;;;;;;;25.35;55.34;100674.47;5065690;28;814;-72
2021/08/28 07:15:22;;;;;;;;;;;;;;;25.37;55.12;100672.56;5065760;28;1309;-73
2021/08/28 07:17:49;;;;;;;;;;;;;;;25.35;55.47;100671.81;5065308;28;1399;-72
2021/08/28 07:20:16;;;;;;;;;;;;;;;25.36;55.15;100673.50;5066920;28;1142;-75
2021/08/28 07:22:43;;;;;;;;;;;;;;;25.38;55.42;100676.88;5066723;28;1311;-72
2021/08/28 07:25:10;;;;;;;;;;;;;;;25.39;55.04;100678.59;5065214;28;1132;-73
2021/08/28 07:27:38;;;;;;;;;;;;;;;25.38;55.27;100679.56;5065125;28;1902;-75
2021/08/28 07:30:05;;;;;;;;;;;;;;;25.39;55.09;100667.91;5066814;28;940;-77
2021/08/28 07:32:34;;;;;;;;;;;;;;;25.38;55.43;100676.88;5066621;28;1287;-76
2021/08/28 07:35:04;;;;;;;;;;;;;;;25.37;55.19;100682.38;5065282;28;783;-74
2021/08/28 07:37:34;;;;;;;;;;;;;;;25.39;55.20;100683.06;5066623;28;1315;-74
2021/08/28 07:40:02;;;;;;;;;;;;;;;25.39;55.23;100689.25;5065335;28;1506;-70
2021/08/28 07:42:52;;;;;;;;;;;;;;;25.37;55.04;100683.22;5066901;28;1273;-73
2021/08/28 07:45:19;;;;;;;;;;;;;;;25.42;55.32;100680.13;5066856;28;1032;-73
2021/08/28 07:47:46;;;;;;;;;;;;;;;25.46;54.98;100690.44;5066910;28;1911;-72
2021/08/28 07:50:14;;;;;;;;;;;;;;;25.48;55.14;100684.94;5066769;28;1068;-70
2021/08/28 07:52:42;;;;;;;;;;;;;;;25.50;55.00;100696.38;5065437;28;1341;-73
2021/08/28 07:55:10;;;;;;;;;;;;;;;25.46;55.12;100694.91;5065452;28;891;-70
2021/08/28 07:57:39;;;;;;;;;;;;;;;25.48;55.19;100693.81;5068563;28;1253;-73
2021/08/28 08:00:07;;;;;;;;;;;;;;;25.49;54.54;100695.53;5057106;28;1655;-74
2021/08/28 08:02:34;;;;;;;;;;;;;;;25.50;55.08;100683.88;5044939;28;1281;-68
2021/08/28 08:05:01;;;;;;;;;;;;;;;25.50;54.87;100688.38;5045962;28;1248;-68
2021/08/28 08:07:28;;;;;;;;;;;;;;;25.54;54.85;100687.13;5048208;28;1236;-71
2021/08/28 08:09:55;;;;;;;;;;;;;;;25.54;54.92;100687.97;5049673;28;1980;-78
2021/08/28 08:12:22;;;;;;;;;;;;;;;25.59;54.45;100689.41;5050392;28;1382;-77
2021/08/28 08:14:49;;;;;;;;;;;;;;;25.60;54.91;100683.06;5048476;28;786;-71
2021/08/28 08:17:16;;;;;;;;;;;;;;;25.60;54.51;100680.41;5048233;28;1302;-75
2021/08/28 08:19:43;;;;;;;;;;;;;;;25.61;54.76;100676.75;5049766;28;821;-69
2021/08/28 08:22:10;;;;;;;;;;;;;;;25.63;55.28;100685.47;5049383;28;1271;-72
2021/08/28 08:24:37;;;;;;;;;;;;;;;25.65;54.79;100684.38;5048312;28;1630;-67
2021/08/28 08:27:59;;;;;;;;;;;;;;;25.67;54.79;100687.75;5050076;28;1362;-77
2021/08/28 08:30:37;;;;;;;;;;;;;;;25.70;54.47;100686.63;5049992;28;1382;-74
2021/08/28 08:33:04;;;;;;;;;;;;;;;25.68;54.72;100678.78;5047057;28;2330;-72
2021/08/28 08:35:31;;;;;;;;;;;;;;;25.67;54.54;100684.22;5049115;28;1236;-73
2021/08/28 08:37:58;;;;;;;;;;;;;;;25.69;54.42;100683.13;5049300;28;798;-68
2021/08/28 08:40:26;;;;;;;;;;;;;;;25.70;54.52;100689.31;5049215;28;1019;-71
2021/08/28 08:42:56;;;;;;;;;;;;;;;25.66;54.38;100674.53;5047688;28;1462;-71
2021/08/28 08:45:24;;;;;;;;;;;;;;;25.73;54.68;100683.69;5048691;28;1048;-70
2021/08/28 08:47:50;;;;;;;;;;;;;;;25.71;54.75;100683.00;5047321;28;1977;-69
2021/08/28 08:50:24;;;;;;;;;;;;;;;25.71;54.14;100691.00;5047790;28;1130;-71
2021/08/28 08:52:58;;;;;;;;;;;;;;;25.73;54.35;100694.38;5048676;28;1402;-72
2021/08/28 08:55:25;;;;;;;;;;;;;;;25.73;54.12;100694.38;5048789;28;1037;-68
2021/08/28 08:58:11;;;;;;;;;;;;;;;25.75;54.17;100695.94;5047173;28;1148;-67
2021/08/28 09:00:38;;;;;;;;;;;;;;;25.73;54.28;100681.03;5048976;28;1280;-70
2021/08/28 09:03:07;;;;;;;;;;;;;;;25.80;52.86;100695.53;5049390;28;821;-66
2021/08/28 09:05:34;;;;;;;;;;;;;;;25.85;52.80;100704.81;5048828;28;1280;-74
2021/08/28 09:08:01;;;;;;;;;;;;;;;25.88;52.85;100701.03;5046855;28;1988;-80
2021/08/28 09:10:28;;;;;;;;;;;;;;;25.90;52.58;100710.59;5048562;28;1342;-80
2021/08/28 09:13:10;;;;;;;;;;;;;;;25.90;52.24;100707.09;5030266;28;818;-70
2021/08/28 09:15:45;;;;;;;;;;;;;;;25.91;52.10;100708.78;5046439;28;1366;-78
2021/08/28 09:18:51;;;;;;;;;;;;;;;25.89;51.99;100711.59;5047205;28;1392;-75
2021/08/28 09:21:38;;;;;;;;;;;;;;;25.94;51.96;100712.03;5048006;28;1526;-72
2021/08/28 09:24:12;;;;;;;;;;;;;;;25.91;52.41;100711.44;5047787;28;1653;-74
2021/08/28 09:26:40;;;;;;;;;;;;;;;25.92;51.94;100713.16;5047507;28;1254;-68
2021/08/28 09:29:09;;;;;;;;;;;;;;;25.89;51.99;100708.06;5029547;28;1910;-70
2021/08/28 09:31:37;;;;;;;;;;;;;;;25.90;51.76;100709.78;5046110;28;1328;-68
2021/08/28 09:34:24;;;;;;;;;;;;;;;25.85;52.18;100703.97;5047527;28;1004;-68
2021/08/28 09:36:57;;;;;;;;;;;;;;;25.88;52.01;100706.38;5049501;28;1248;-67
2021/08/28 09:39:36;;;;;;;;;;;;;;;25.86;52.21;100703.00;5049757;28;1171;-68
2021/08/28 09:42:07;;;;;;;;;;;;;;;25.89;52.53;100708.06;5049128;28;1375;-67
2021/08/28 09:44:44;;;;;;;;;;;;;;;25.90;52.18;100707.91;5047652;28;1395;-68
2021/08/28 09:47:15;;;;;;;;;;;;;;;25.89;52.40;100702.75;5049252;28;1365;-67
2021/08/28 09:49:46;;;;;;;;;;;;;;;25.87;52.21;100702.03;5049090;28;1977;-68
2021/08/28 09:52:17;;;;;;;;;;;;;;;25.90;52.27;100702.59;5049010;28;1398;-68
2021/08/28 09:54:44;;;;;;;;;;;;;;;25.90;52.53;100702.59;5049133;28;790;-68
2021/08/28 09:57:12;;;;;;;;;;;;;;;25.92;52.17;100702.47;5047083;28;1331;-68
2021/08/28 09:59:42;;;;;;;;;;;;;;;25.92;52.42;100699.78;5047678;28;871;-68
2021/08/28 10:02:15;;;;;;;;;;;;;;;25.92;52.37;100697.13;5047317;28;1398;-68
2021/08/28 10:04:56;;;;;;;;;;;;;;;25.93;52.73;100699.66;5031226;28;1214;-68
2021/08/28 10:07:24;;;;;;;;;;;;;;;25.95;52.09;100699.53;5047550;28;1216;-68
2021/08/28 10:09:56;;;;;;;;;;;;;;;25.93;52.59;100698.84;5048504;28;1991;-68
2021/08/28 10:12:33;;;;;;;;;;;;;;;25.97;52.33;100694.88;5048766;28;1134;-68
2021/08/28 10:15:20;;;;;;;;;;;;;;;25.95;52.27;100700.38;5048972;28;1165;-68
2021/08/28 10:17:49;;;;;;;;;;;;;;;25.95;51.86;100696.88;5048740;28;1236;-68
2021/08/28 10:20:18;;;;;;;;;;;;;;;25.98;52.52;100704.59;5048669;28;822;-68
2021/08/28 10:22:49;;;;;;;;;;;;;;;25.98;51.52;100699.25;5047410;28;1340;-69
2021/08/28 10:25:17;;;;;;;;;;;;;;;26.01;51.35;100699.00;5048311;28;1085;-69
2021/08/28 10:27:48;;;;;;;;;;;;;;;25.98;51.16;100693.91;5031063;28;1682;-69
2021/08/28 10:30:20;;;;;;;;;;;;;;;25.97;51.82;100693.06;5045978;28;1989;-69
2021/08/28 10:32:50;;;;;;;;;;;;;;;25.96;52.00;100698.56;5030994;28;1321;-69
2021/08/28 10:35:20;;;;;;;;;;;;;;;26.01;51.34;100688.31;5046637;28;1417;-69
2021/08/28 10:37:51;;;;;;;;;;;;;;;25.98;51.09;100685.91;5045967;28;1652;-69
2021/08/28 10:40:22;;;;;;;;;;;;;;;26.03;50.93;100689.84;5048800;28;822;-68
2021/08/28 10:42:51;;;;;;;;;;;;;;;26.00;50.36;100683.94;5047075;28;1284;-69
2021/08/28 10:45:30;;;;;;;;;;;;;;;26.00;50.51;100674.13;5030416;28;1218;-69
2021/08/28 10:48:07;;;;;;;;;;;;;;;25.97;51.14;100676.22;5046701;28;1380;-68
2021/08/28 10:50:36;;;;;;;;;;;;;;;26.02;50.64;100671.34;5048155;28;1910;-68
2021/08/28 10:53:03;;;;;;;;;;;;;;;25.98;51.22;100680.56;5046870;28;1077;-69
2021/08/28 10:55:42;;;;;;;;;;;;;;;25.96;51.96;100674.53;5046302;28;1236;-67
2021/08/28 10:58:23;;;;;;;;;;;;;;;25.96;52.32;100663.88;5048240;28;1078;-68
2021/08/28 11:00:51;;;;;;;;;;;;;;;26.01;51.25;100674.97;5048371;28;1299;-69
2021/08/28 11:03:30;;;;;;;;;;;;;;;25.99;51.37;100671.59;5047030;28;1466;-68
2021/08/28 11:06:15;;;;;;;;;;;;;;;26.00;51.52;100666.09;5046806;28;1338;-69
2021/08/28 11:08:46;;;;;;;;;;;;;;;25.98;51.82;100668.09;5046683;28;1934;-68
2021/08/28 11:11:36;;;;;;;;;;;;;;;26.04;51.80;100672.03;5046180;28;1176;-68
2021/08/28 11:14:17;;;;;;;;;;;;;;;26.05;50.93;100665.72;5045970;28;1220;-68
2021/08/28 11:16:52;;;;;;;;;;;;;;;26.04;51.03;100664.88;5046589;28;1312;-68
2021/08/28 11:19:22;;;;;;;;;;;;;;;26.08;51.14;100668.13;5048180;28;1198;-69
2021/08/28 11:21:52;;;;;;;;;;;;;;;26.02;51.47;100666.81;5030055;28;1585;-69
2021/08/28 11:24:23;;;;;;;;;;;;;;;26.03;51.28;100667.66;5047868;28;1512;-68
2021/08/28 11:26:54;;;;;;;;;;;;;;;26.05;51.87;100663.06;5046244;28;1525;-69
2021/08/28 11:29:21;;;;;;;;;;;;;;;26.06;51.99;100662.03;5047995;28;1906;-68
2021/08/28 11:32:22;;;;;;;;;;;;;;;26.05;51.95;100650.53;5046116;28;1337;-68
2021/08/28 11:34:55;;;;;;;;;;;;;;;26.04;52.80;100664.03;5037943;28;1051;-68
2021/08/28 11:37:26;;;;;;;;;;;;;;;26.08;52.47;100662.78;5029762;28;1303;-67
2021/08/28 11:40:00;;;;;;;;;;;;;;;26.09;52.59;100661.78;5046310;28;1491;-68
2021/08/28 11:42:31;;;;;;;;;;;;;;;26.08;52.48;100665.44;5050747;28;1334;-67
2021/08/28 11:44:59;;;;;;;;;;;;;;;26.05;52.79;100663.06;5051413;28;742;-68
2021/08/28 11:47:29;;;;;;;;;;;;;;;26.02;52.76;100657.97;5049436;28;1291;-68
2021/08/28 11:49:59;;;;;;;;;;;;;;;26.05;52.53;100666.53;5051457;28;1905;-68
2021/08/28 11:52:33;;;;;;;;;;;;;;;26.08;51.54;100663.59;5050422;28;1200;-68
2021/08/28 11:55:05;;;;;;;;;;;;;;;26.05;52.18;100660.38;5049610;28;1129;-67
2021/08/28 11:57:35;;;;;;;;;;;;;;;26.07;52.02;100659.25;5049736;28;1278;-68
2021/08/28 12:00:06;;;;;;;;;;;;;;;26.05;51.55;100660.38;5050073;28;1021;-68
2021/08/28 12:02:34;;;;;;;;;;;;;;;26.10;52.30;100663.47;5051479;28;1205;-71
2021/08/28 12:05:11;;;;;;;;;;;;;;;26.20;51.91;100659.03;5053128;28;1498;-65
2021/08/28 12:07:38;;;;;;;;;;;;;;;26.14;52.29;100664.91;5054895;28;1300;-64
2021/08/28 12:10:05;;;;;;;;;;;;;;;26.10;52.73;100658.13;5041169;28;1910;-66
2021/08/28 12:12:33;;;;;;;;;;;;;;;26.09;53.23;100656.44;5042009;28;1321;-66
2021/08/28 12:15:05;;;;;;;;;;;;;;;26.12;53.87;100661.50;5038901;28;1307;-67
2021/08/28 12:17:52;;;;;;;;;;;;;;;26.15;53.62;100655.91;5039260;28;1312;-66
2021/08/28 12:20:24;;;;;;;;;;;;;;;26.17;53.54;100647.78;5054844;28;1090;-67
2021/08/28 12:22:52;;;;;;;;;;;;;;;26.23;53.13;100656.09;5045327;28;1647;-68
2021/08/28 12:25:20;;;;;;;;;;;;;;;26.21;53.09;100660.72;5039766;28;1571;-69
2021/08/28 12:27:48;;;;;;;;;;;;;;;26.17;52.92;100663.81;5036145;28;1367;-68
2021/08/28 12:30:16;;;;;;;;;;;;;;;26.16;52.67;100646.09;5040428;28;1981;-66
2021/08/28 12:32:43;;;;;;;;;;;;;;;26.15;53.26;100650.59;5036791;28;1340;-66
2021/08/28 12:35:14;;;;;;;;;;;;;;;26.15;52.68;100650.59;5038600;28;1027;-66
2021/08/28 12:37:43;;;;;;;;;;;;;;;26.23;52.20;100648.09;5038914;28;1383;-71
2021/08/28 12:40:13;;;;;;;;;;;;;;;26.37;52.66;100644.16;5036553;28;1229;-65
2021/08/28 12:42:42;;;;;;;;;;;;;;;26.30;52.92;100657.22;5036906;28;1225;-62
2021/08/28 12:45:09;;;;;;;;;;;;;;;26.29;53.66;100650.22;5040684;28;1257;-64
2021/08/28 12:47:39;;;;;;;;;;;;;;;26.32;53.65;100639.25;5038046;28;1354;-66
2021/08/28 12:50:09;;;;;;;;;;;;;;;26.39;53.20;100651.03;5039389;28;1910;-64
2021/08/28 12:52:35;;;;;;;;;;;;;;;26.44;53.17;100646.16;5040596;28;1303;-68
2021/08/28 12:55:02;;;;;;;;;;;;;;;26.52;53.04;100654.28;5044401;28;1612;-71
2021/08/28 12:57:30;;;;;;;;;;;;;;;26.42;53.14;100655.25;5043268;28;1300;-75
2021/08/28 13:00:00;;;;;;;;;;;;;;;26.39;53.50;100648.38;5023960;28;1182;-75